Time;durP1;ratioP1;P1;durP2;ratioP2;P2;SDS_P1;SDS_P2;PMS_P1;PMS_P2;Temp;Humidity;BMP_temperature;BMP_pressure;BME280_temperature;BME280_humidity;BME280_pressure;Samples;Min_cycle;Max_cycle;Signal;HPM_P1;HPM_P2
2024/02/07 00:01:13;;;;;;;8.57;0.95;;;9.00;99.90;;;;;;5011661;28;20108;-74
2024/02/07 00:03:39;;;;;;;8.18;1.10;;;8.90;99.90;;;;;;5011681;28;20034;-74
2024/02/07 00:06:05;;;;;;;8.52;1.00;;;8.90;99.90;;;;;;5011778;28;20510;-74
2024/02/07 00:08:30;;;;;;;3.47;0.90;;;8.80;99.90;;;;;;5012356;28;20037;-74
2024/02/07 00:10:57;;;;;;;6.30;1.00;;;8.80;99.90;;;;;;5011351;28;20054;-73
2024/02/07 00:13:23;;;;;;;8.35;0.93;;;8.70;99.90;;;;;;5010430;28;20026;-74
2024/02/07 00:15:49;;;;;;;9.50;1.70;;;8.70;99.90;;;;;;5011703;28;20022;-73
2024/02/07 00:18:15;;;;;;;5.60;1.02;;;8.60;99.90;;;;;;5012081;28;20358;-73
2024/02/07 00:20:41;;;;;;;10.15;1.15;;;8.60;99.90;;;;;;5011821;28;20064;-74
2024/02/07 00:23:07;;;;;;;9.32;1.35;;;8.50;99.90;;;;;;5011719;28;20045;-74
2024/02/07 00:25:34;;;;;;;11.63;1.40;;;8.50;99.90;;;;;;5012332;28;20060;-74
2024/02/07 00:28:00;;;;;;;10.02;1.35;;;8.40;99.90;;;;;;5011287;28;20102;-74
2024/02/07 00:30:25;;;;;;;11.18;1.45;;;8.40;99.90;;;;;;5011707;28;20073;-75
2024/02/07 00:32:54;;;;;;;9.85;1.20;;;8.40;99.90;;;;;;5009779;28;20029;-75
2024/02/07 00:35:20;;;;;;;10.20;1.40;;;8.30;99.90;;;;;;5011631;28;20491;-74
2024/02/07 00:37:45;;;;;;;11.45;1.13;;;8.30;99.90;;;;;;5011023;28;20036;-74
2024/02/07 00:40:14;;;;;;;10.93;0.90;;;8.20;99.90;;;;;;5011751;28;20025;-75
2024/02/07 00:42:40;;;;;;;7.72;0.90;;;8.20;99.90;;;;;;5011049;28;20033;-75
2024/02/07 00:45:08;;;;;;;9.63;1.20;;;8.20;99.90;;;;;;5010500;28;20018;-75
2024/02/07 00:47:34;;;;;;;9.05;1.20;;;8.20;99.90;;;;;;5010251;28;20040;-75
2024/02/07 00:50:00;;;;;;;10.15;1.35;;;8.10;99.90;;;;;;5031277;28;20112;-73
2024/02/07 00:52:28;;;;;;;4.93;1.05;;;8.10;99.90;;;;;;5030741;28;20029;-75
2024/02/07 00:54:54;;;;;;;3.45;0.80;;;8.10;99.90;;;;;;5031138;28;20116;-75
2024/02/07 00:57:19;;;;;;;9.27;1.63;;;8.10;99.90;;;;;;5012871;28;20507;-75
2024/02/07 00:59:48;;;;;;;8.10;1.10;;;8.00;99.90;;;;;;5031663;28;20025;-75
2024/02/07 01:02:14;;;;;;;5.95;1.02;;;8.00;99.90;;;;;;5031394;28;20018;-75
2024/02/07 01:04:40;;;;;;;8.82;1.40;;;7.90;99.90;;;;;;5013580;28;20052;-75
2024/02/07 01:07:07;;;;;;;6.18;1.10;;;7.90;99.90;;;;;;5031423;28;20034;-75
2024/02/07 01:09:34;;;;;;;8.68;0.95;;;7.90;99.90;;;;;;5033629;28;20021;-74
2024/02/07 01:12:03;;;;;;;13.27;1.58;;;7.90;99.90;;;;;;5034842;28;20067;-75
2024/02/07 01:14:28;;;;;;;6.30;0.98;;;7.90;99.90;;;;;;5017300;28;20017;-75
2024/02/07 01:16:54;;;;;;;13.88;1.13;;;7.80;99.90;;;;;;5030442;28;20364;-75
2024/02/07 01:19:21;;;;;;;11.95;1.45;;;7.80;99.90;;;;;;5031122;28;20026;-75
2024/02/07 01:21:46;;;;;;;6.35;0.93;;;7.80;99.90;;;;;;5030406;28;20025;-75
2024/02/07 01:24:12;;;;;;;8.90;1.10;;;7.80;99.90;;;;;;5034592;28;20056;-74
2024/02/07 01:26:38;;;;;;;7.65;1.50;;;7.80;99.90;;;;;;5034503;28;20030;-75
2024/02/07 01:29:05;;;;;;;7.70;1.17;;;7.80;99.90;;;;;;5035518;28;20029;-74
2024/02/07 01:31:31;;;;;;;10.43;1.20;;;7.80;99.90;;;;;;5035904;28;20098;-74
2024/02/07 01:33:57;;;;;;;12.05;1.73;;;7.70;99.90;;;;;;5021558;28;20061;-74
2024/02/07 01:36:26;;;;;;;9.02;0.93;;;7.70;99.90;;;;;;5036784;28;20039;-75
2024/02/07 01:38:54;;;;;;;8.05;1.00;;;7.70;99.90;;;;;;5016830;28;20913;-74
2024/02/07 01:41:22;;;;;;;7.75;1.13;;;7.60;99.90;;;;;;5034645;28;20371;-73
2024/02/07 01:43:48;;;;;;;9.13;0.95;;;7.60;99.90;;;;;;5034624;28;20026;-75
2024/02/07 01:46:17;;;;;;;10.35;0.93;;;7.60;99.90;;;;;;5034773;28;20033;-75
2024/02/07 01:48:43;;;;;;;8.60;1.10;;;7.60;99.90;;;;;;5034030;28;20073;-74
2024/02/07 01:51:13;;;;;;;7.68;1.52;;;7.60;99.90;;;;;;5034754;28;20068;-75
2024/02/07 01:53:40;;;;;;;11.35;1.00;;;7.60;99.90;;;;;;5016711;28;20037;-75
2024/02/07 01:56:08;;;;;;;8.25;1.10;;;7.50;99.90;;;;;;5038419;28;20395;-74
2024/02/07 01:58:35;;;;;;;7.47;1.13;;;7.50;99.90;;;;;;5038627;28;20105;-74
2024/02/07 02:01:04;;;;;;;9.02;1.25;;;7.50;99.90;;;;;;5039064;28;20033;-72
2024/02/07 02:03:29;;;;;;;8.77;1.20;;;7.50;99.90;;;;;;5038564;28;20104;-74
2024/02/07 02:06:00;;;;;;;7.78;0.98;;;7.40;99.90;;;;;;5035879;28;20048;-74
2024/02/07 02:08:29;;;;;;;12.45;1.08;;;7.40;99.90;;;;;;5034145;28;20045;-75
2024/02/07 02:11:00;;;;;;;8.95;1.20;;;7.40;99.90;;;;;;5034218;28;20021;-74
2024/02/07 02:13:26;;;;;;;6.68;1.08;;;7.30;99.90;;;;;;5033620;28;20105;-75
2024/02/07 02:15:52;;;;;;;12.13;1.20;;;7.30;99.90;;;;;;5033854;28;20564;-75
2024/02/07 02:18:21;;;;;;;17.40;1.33;;;7.30;99.90;;;;;;5033823;28;20475;-75
2024/02/07 02:20:47;;;;;;;12.60;1.48;;;7.20;99.90;;;;;;5034280;28;20031;-73
2024/02/07 02:23:20;;;;;;;8.73;1.02;;;7.20;99.90;;;;;;5033596;28;20021;-74
2024/02/07 02:25:58;;;;;;;15.25;1.60;;;7.10;99.90;;;;;;5033989;28;20025;-74
2024/02/07 02:29:07;;;;;;;13.63;1.27;;;7.10;99.90;;;;;;5033697;28;20025;-74
2024/02/07 02:31:34;;;;;;;16.02;1.33;;;7.10;99.90;;;;;;4952738;29;20070;-75
2024/02/07 02:34:01;;;;;;;8.70;1.33;;;7.10;99.90;;;;;;5020691;28;20065;-75
2024/02/07 02:36:27;;;;;;;9.98;1.10;;;7.10;99.90;;;;;;5033086;28;20045;-74
2024/02/07 02:38:53;;;;;;;15.93;1.35;;;7.10;99.90;;;;;;5033571;28;20160;-75
2024/02/07 02:41:23;;;;;;;11.07;1.17;;;7.10;99.90;;;;;;5033794;28;20017;-75
2024/02/07 02:43:49;;;;;;;13.77;1.52;;;7.10;99.90;;;;;;5033060;28;20083;-74
2024/02/07 02:46:17;;;;;;;10.52;1.25;;;7.10;99.90;;;;;;5033621;28;20022;-74
2024/02/07 02:48:43;;;;;;;6.30;1.08;;;7.10;99.90;;;;;;5032573;28;20057;-75
2024/02/07 02:51:09;;;;;;;6.85;1.20;;;7.10;99.90;;;;;;5033487;28;20029;-74
2024/02/07 02:53:38;;;;;;;8.20;1.05;;;7.00;99.90;;;;;;5034784;28;20021;-74
2024/02/07 02:56:05;;;;;;;9.45;1.33;;;7.10;99.90;;;;;;5035191;28;20068;-75
2024/02/07 02:58:32;;;;;;;10.77;1.10;;;7.00;99.90;;;;;;5032830;28;20025;-75
2024/02/07 03:01:02;;;;;;;12.45;1.25;;;7.00;99.90;;;;;;5033415;28;20017;-74
2024/02/07 03:03:30;;;;;;;11.38;0.90;;;7.00;99.90;;;;;;5032674;28;20036;-74
2024/02/07 03:05:59;;;;;;;11.88;1.23;;;7.00;99.90;;;;;;5019539;28;20364;-75
2024/02/07 03:08:42;;;;;;;13.60;1.30;;;7.00;99.90;;;;;;5032741;28;20028;-74
2024/02/07 03:11:11;;;;;;;13.88;1.50;;;7.00;99.90;;;;;;5019812;28;20037;-75
2024/02/07 03:13:39;;;;;;;14.77;1.50;;;7.00;99.90;;;;;;5032268;28;20036;-74
2024/02/07 03:16:06;;;;;;;10.95;1.48;;;7.00;99.90;;;;;;5015699;28;20045;-74
2024/02/07 03:18:35;;;;;;;9.80;1.35;;;6.90;99.90;;;;;;5035192;28;20018;-74
2024/02/07 03:21:05;;;;;;;15.63;1.20;;;6.90;99.90;;;;;;5015275;28;20018;-74
2024/02/07 03:23:34;;;;;;;8.45;1.08;;;6.80;99.90;;;;;;5032465;28;20418;-74
2024/02/07 03:26:00;;;;;;;11.10;1.00;;;6.70;99.90;;;;;;5014624;28;20117;-74
2024/02/07 03:28:27;;;;;;;6.28;0.85;;;6.70;99.90;;;;;;5032601;28;20060;-74
2024/02/07 03:30:53;;;;;;;9.52;0.93;;;6.60;99.90;;;;;;5033005;28;20156;-74
2024/02/07 03:33:19;;;;;;;9.18;1.13;;;6.60;99.90;;;;;;5032416;28;20040;-75
2024/02/07 03:35:52;;;;;;;12.77;1.05;;;6.60;99.90;;;;;;5032377;28;20116;-74
2024/02/07 03:38:17;;;;;;;9.32;1.10;;;6.50;99.90;;;;;;5032135;28;20021;-74
2024/02/07 03:40:45;;;;;;;9.25;1.10;;;6.50;99.90;;;;;;5015018;28;20109;-75
2024/02/07 03:43:11;;;;;;;10.25;1.08;;;6.50;99.90;;;;;;5014097;28;20087;-74
2024/02/07 03:45:37;;;;;;;12.65;1.10;;;6.50;99.90;;;;;;5032189;28;20021;-75
2024/02/07 03:48:05;;;;;;;7.30;0.90;;;6.40;99.90;;;;;;5031974;28;20052;-74
2024/02/07 03:50:31;;;;;;;7.45;0.98;;;6.40;99.90;;;;;;5031931;28;20048;-74
2024/02/07 03:52:57;;;;;;;11.20;0.98;;;6.40;99.90;;;;;;5032003;28;20025;-75
2024/02/07 03:55:23;;;;;;;14.45;1.30;;;6.40;99.90;;;;;;5032506;28;20041;-74
2024/02/07 03:57:49;;;;;;;16.88;1.30;;;6.40;99.90;;;;;;5031622;28;20099;-74
2024/02/07 04:00:17;;;;;;;9.57;0.90;;;6.40;99.90;;;;;;5032353;28;20037;-75
2024/02/07 04:02:50;;;;;;;23.70;1.33;;;6.30;99.90;;;;;;5031363;28;20085;-74
2024/02/07 04:05:19;;;;;;;10.25;0.95;;;6.30;99.90;;;;;;5013906;28;20486;-74
2024/02/07 04:07:45;;;;;;;6.25;0.88;;;6.30;99.90;;;;;;5031234;28;20488;-74
2024/02/07 04:10:11;;;;;;;9.15;0.80;;;6.30;99.90;;;;;;5035926;28;20048;-74
2024/02/07 05:16:02;;;;;;;7.90;1.00;;;5.50;99.90;;;;;;5031166;28;20102;-74
2024/02/07 05:18:28;;;;;;;16.63;1.70;;;5.60;99.90;;;;;;5030315;28;20048;-74
2024/02/07 05:20:53;;;;;;;12.05;1.30;;;5.60;99.90;;;;;;5013219;28;20013;-74
2024/02/07 05:23:22;;;;;;;10.68;1.02;;;5.60;99.90;;;;;;5030506;28;20022;-74
2024/02/07 05:25:48;;;;;;;13.38;1.17;;;5.60;99.90;;;;;;5030540;28;20029;-74
2024/02/07 05:28:15;;;;;;;17.05;2.13;;;5.60;99.90;;;;;;5030366;28;20108;-74
2024/02/07 05:30:41;;;;;;;8.35;1.35;;;5.60;99.90;;;;;;5030680;28;20036;-75
2024/02/07 05:33:07;;;;;;;10.88;1.10;;;5.60;99.90;;;;;;5030374;28;20017;-75
2024/02/07 05:35:32;;;;;;;11.52;1.33;;;5.60;99.90;;;;;;5030666;28;20022;-74
2024/02/07 05:38:04;;;;;;;19.23;1.98;;;5.60;99.90;;;;;;5030111;28;21131;-74
2024/02/07 05:40:30;;;;;;;19.25;1.48;;;5.60;99.90;;;;;;5030751;28;20033;-75
2024/02/07 05:42:57;;;;;;;17.15;1.67;;;5.70;99.90;;;;;;5030142;28;20030;-75
2024/02/07 05:45:22;;;;;;;10.18;1.60;;;5.70;99.90;;;;;;5013118;28;20024;-74
2024/02/07 05:47:48;;;;;;;7.38;1.40;;;5.70;99.90;;;;;;5012025;28;20109;-74
2024/02/07 05:50:15;;;;;;;11.20;1.40;;;5.70;99.90;;;;;;5030491;28;20027;-74
2024/02/07 05:52:41;;;;;;;23.52;1.65;;;5.70;99.90;;;;;;5030314;28;20071;-74
2024/02/07 05:55:07;;;;;;;12.10;1.13;;;5.70;99.90;;;;;;5030349;28;20022;-74
2024/02/07 05:57:36;;;;;;;23.05;2.30;;;5.70;99.90;;;;;;5029877;28;20022;-75
2024/02/07 06:00:09;;;;;;;7.30;1.17;;;5.70;99.90;;;;;;5030408;28;20030;-75
2024/02/07 06:02:35;;;;;;;15.30;1.55;;;5.70;99.90;;;;;;5016154;28;20029;-74
2024/02/07 06:05:05;;;;;;;10.38;1.70;;;5.70;99.90;;;;;;5030407;28;20025;-75
2024/02/07 06:07:31;;;;;;;12.70;1.13;;;5.70;99.90;;;;;;5011939;28;20029;-75
2024/02/07 06:09:57;;;;;;;13.65;1.55;;;5.70;99.90;;;;;;5033717;28;20063;-76
2024/02/07 06:12:23;;;;;;;10.32;1.48;;;5.70;99.90;;;;;;5034044;28;20037;-73
2024/02/07 06:14:49;;;;;;;11.27;1.73;;;5.70;99.90;;;;;;5033700;28;20022;-75
2024/02/07 06:17:18;;;;;;;11.82;1.75;;;5.70;99.90;;;;;;5016239;28;20115;-75
2024/02/07 06:19:44;;;;;;;18.08;1.92;;;5.70;99.90;;;;;;5016097;28;20092;-75
2024/02/07 06:22:13;;;;;;;16.58;1.42;;;5.70;99.90;;;;;;5033967;28;20423;-75
2024/02/07 06:24:39;;;;;;;13.77;1.65;;;5.70;99.90;;;;;;5020108;28;20018;-75
2024/02/07 06:27:05;;;;;;;20.55;1.60;;;5.70;99.90;;;;;;5033983;28;20060;-75
2024/02/07 06:29:31;;;;;;;20.77;1.77;;;5.80;99.90;;;;;;5032902;28;20025;-75
2024/02/07 06:31:58;;;;;;;19.73;1.80;;;5.80;99.90;;;;;;5015600;28;20022;-75
2024/02/07 06:34:24;;;;;;;22.40;1.77;;;5.80;99.90;;;;;;5033503;28;20021;-75
2024/02/07 06:36:49;;;;;;;16.77;1.58;;;5.80;99.90;;;;;;5033690;28;20391;-75
2024/02/07 06:39:15;;;;;;;13.48;1.98;;;5.80;99.90;;;;;;5015552;28;20029;-74
2024/02/07 06:41:41;;;;;;;6.63;1.40;;;5.80;99.90;;;;;;5033971;28;20014;-74
2024/02/07 06:44:06;;;;;;;16.00;1.90;;;5.80;99.90;;;;;;5015358;28;20072;-77
2024/02/07 06:46:42;;;;;;;13.13;1.73;;;5.70;99.90;;;;;;5015747;28;20561;-74
2024/02/07 06:49:08;;;;;;;21.85;1.77;;;5.70;99.90;;;;;;5033039;28;20053;-76
2024/02/07 06:51:33;;;;;;;10.32;1.48;;;5.70;99.90;;;;;;5015318;28;20033;-75
2024/02/07 06:54:02;;;;;;;10.40;1.60;;;5.70;99.90;;;;;;5033407;28;20112;-74
2024/02/07 06:56:28;;;;;;;17.58;1.67;;;5.70;99.90;;;;;;5014824;28;20036;-75
2024/02/07 06:58:56;;;;;;;8.52;1.60;;;5.80;99.90;;;;;;5032877;28;20014;-75
2024/02/07 07:01:22;;;;;;;14.90;2.00;;;5.80;99.90;;;;;;5033266;28;20598;-75
2024/02/07 07:03:51;;;;;;;13.98;2.10;;;5.80;99.90;;;;;;5032782;28;20036;-75
2024/02/07 07:06:17;;;;;;;17.15;1.75;;;5.80;99.90;;;;;;5015522;28;20025;-75
2024/02/07 07:08:44;;;;;;;23.30;2.15;;;5.80;99.90;;;;;;5032698;28;20027;-75
2024/02/07 07:11:10;;;;;;;14.10;2.00;;;5.80;99.90;;;;;;5032558;28;20029;-75
2024/02/07 07:13:36;;;;;;;15.50;2.13;;;5.90;99.90;;;;;;5032694;28;20123;-76
2024/02/07 07:16:01;;;;;;;18.70;2.28;;;5.90;99.90;;;;;;5035798;28;20088;-75
2024/02/07 07:18:27;;;;;;;16.55;2.03;;;5.90;99.90;;;;;;5032456;28;20021;-75
2024/02/07 07:20:55;;;;;;;27.30;3.10;;;5.90;99.90;;;;;;5014617;28;20021;-75
2024/02/07 07:23:21;;;;;;;21.20;2.08;;;5.90;99.90;;;;;;5031943;28;20022;-75
2024/02/07 07:25:48;;;;;;;22.58;2.17;;;5.90;99.90;;;;;;5028342;28;20099;-75
2024/02/07 07:28:14;;;;;;;23.38;2.55;;;6.00;99.90;;;;;;5032590;28;20022;-75
2024/02/07 07:30:39;;;;;;;11.80;2.10;;;6.00;99.90;;;;;;5016816;28;20092;-75
2024/02/07 07:33:05;;;;;;;18.63;2.78;;;6.00;99.90;;;;;;5030751;28;20036;-75
2024/02/07 07:35:33;;;;;;;8.73;1.95;;;5.90;99.90;;;;;;5028253;28;20095;-75
2024/02/07 07:38:03;;;;;;;10.35;1.85;;;5.80;99.90;;;;;;5030031;28;20032;-75
2024/02/07 07:40:29;;;;;;;11.98;2.05;;;5.80;99.90;;;;;;5032372;28;20033;-75
2024/02/07 07:42:54;;;;;;;18.15;2.45;;;5.80;99.90;;;;;;5026476;28;20030;-75
2024/02/07 07:45:20;;;;;;;21.48;2.42;;;5.80;99.90;;;;;;5030829;28;20065;-75
2024/02/07 07:47:50;;;;;;;17.95;2.35;;;5.80;99.90;;;;;;5024211;28;20036;-75
2024/02/07 07:50:17;;;;;;;14.13;2.00;;;5.80;99.90;;;;;;5029848;28;20102;-75
2024/02/07 07:52:43;;;;;;;20.15;2.30;;;5.80;99.90;;;;;;5016250;28;20030;-75
2024/02/07 07:55:09;;;;;;;15.90;2.22;;;5.80;99.90;;;;;;5027580;28;20022;-75
2024/02/07 07:57:34;;;;;;;17.52;2.42;;;5.80;99.90;;;;;;5026341;28;20049;-75
2024/02/07 08:00:03;;;;;;;16.05;2.22;;;5.90;99.90;;;;;;5007095;28;20022;-75
2024/02/07 08:02:29;;;;;;;13.60;2.35;;;5.80;99.90;;;;;;5028442;28;20394;-75
2024/02/07 08:05:01;;;;;;;17.48;2.28;;;5.80;99.90;;;;;;5032766;28;20316;-75
2024/02/07 08:07:26;;;;;;;18.58;2.40;;;5.80;99.90;;;;;;5023081;28;20573;-75
2024/02/07 08:09:55;;;;;;;16.70;2.58;;;5.80;99.90;;;;;;5016736;28;20033;-75
2024/02/07 08:12:21;;;;;;;16.10;2.10;;;5.80;99.90;;;;;;5032105;28;20021;-75
2024/02/07 08:14:50;;;;;;;17.20;2.70;;;5.90;99.90;;;;;;5031740;28;20032;-75
2024/02/07 08:17:18;;;;;;;23.23;2.60;;;5.80;99.90;;;;;;5031776;28;20030;-75
2024/02/07 08:19:46;;;;;;;16.67;2.47;;;5.90;99.90;;;;;;5031644;28;20064;-75
2024/02/07 08:22:11;;;;;;;15.82;2.10;;;5.90;99.90;;;;;;5031768;28;20077;-75
2024/02/07 08:24:37;;;;;;;17.15;2.42;;;5.90;99.90;;;;;;5019041;28;20029;-74
2024/02/07 08:27:03;;;;;;;11.52;2.10;;;5.90;99.90;;;;;;5032393;28;20032;-75
2024/02/07 08:29:30;;;;;;;14.60;2.67;;;5.90;99.90;;;;;;5009506;28;20026;-75
2024/02/07 08:32:16;;;;;;;14.45;2.80;;;5.90;99.90;;;;;;5033675;28;20498;-75
2024/02/07 08:34:41;;;;;;;14.60;2.33;;;5.90;99.90;;;;;;5024633;28;20045;-75
2024/02/07 08:37:07;;;;;;;11.20;2.45;;;5.90;99.90;;;;;;5019058;28;20034;-75
2024/02/07 08:39:33;;;;;;;16.17;2.40;;;5.90;99.90;;;;;;5016259;28;20026;-75
2024/02/07 08:41:59;;;;;;;12.80;2.35;;;5.90;99.90;;;;;;5029336;28;20056;-75
2024/02/07 08:44:24;;;;;;;19.30;2.60;;;6.00;99.90;;;;;;5015597;28;20021;-75
2024/02/07 08:46:50;;;;;;;18.35;2.75;;;6.00;99.90;;;;;;5011200;28;20383;-75
2024/02/07 08:49:19;;;;;;;19.70;2.78;;;6.00;99.90;;;;;;5030714;28;20045;-75
2024/02/07 08:51:44;;;;;;;15.40;2.35;;;6.00;99.90;;;;;;5031255;28;20033;-75
2024/02/07 08:54:10;;;;;;;21.30;2.75;;;6.00;99.90;;;;;;5030693;28;20028;-76
2024/02/07 08:56:36;;;;;;;19.17;2.33;;;5.90;99.90;;;;;;5026195;28;20175;-77
2024/02/07 08:59:02;;;;;;;21.35;3.50;;;5.90;99.90;;;;;;5012713;28;20116;-76
2024/02/07 09:01:28;;;;;;;16.70;2.47;;;6.00;99.90;;;;;;5031153;28;20048;-77
2024/02/07 09:03:54;;;;;;;15.25;3.05;;;6.00;99.90;;;;;;5030754;28;20013;-77
2024/02/07 09:06:20;;;;;;;18.45;3.17;;;6.00;99.90;;;;;;5031298;28;20029;-77
2024/02/07 09:08:46;;;;;;;28.85;2.80;;;6.10;99.90;;;;;;5030280;28;20029;-77
2024/02/07 09:11:11;;;;;;;17.50;2.80;;;6.10;99.90;;;;;;5026586;28;20403;-76
2024/02/07 09:13:40;;;;;;;12.52;2.53;;;6.10;99.90;;;;;;5015490;28;20024;-78
2024/02/07 09:16:06;;;;;;;24.60;3.53;;;6.10;99.90;;;;;;5006095;28;20048;-77
2024/02/07 09:18:35;;;;;;;23.33;3.47;;;6.10;99.90;;;;;;5023640;28;20033;-77
2024/02/07 09:21:00;;;;;;;23.70;3.20;;;6.20;99.90;;;;;;5030492;28;20063;-78
2024/02/07 09:23:26;;;;;;;16.70;2.80;;;6.20;99.90;;;;;;5027240;28;20034;-78
2024/02/07 09:25:55;;;;;;;18.83;2.80;;;6.20;99.90;;;;;;5032539;28;20048;-77
2024/02/07 09:28:20;;;;;;;24.40;3.53;;;6.20;99.90;;;;;;5010929;28;20354;-77
2024/02/07 09:30:46;;;;;;;25.40;3.63;;;6.20;99.90;;;;;;5012683;28;20499;-77
2024/02/07 09:33:13;;;;;;;19.23;2.85;;;6.20;99.90;;;;;;5030638;28;20037;-77
2024/02/07 09:35:39;;;;;;;29.15;3.58;;;6.20;99.90;;;;;;5035237;28;20485;-77
2024/02/07 09:38:04;;;;;;;13.18;2.45;;;6.30;99.90;;;;;;5025379;28;20034;-77
2024/02/07 09:40:30;;;;;;;19.42;3.28;;;6.30;99.90;;;;;;5021619;28;20041;-77
2024/02/07 09:43:00;;;;;;;20.52;3.47;;;6.30;99.90;;;;;;5026464;28;20064;-80
2024/02/07 09:45:32;;;;;;;17.05;2.78;;;6.40;99.90;;;;;;5034468;28;20159;-79
2024/02/07 09:48:36;;;;;;;19.65;3.47;;;6.40;99.90;;;;;;5034242;28;20045;-78
2024/02/07 09:51:05;;;;;;;24.58;2.95;;;6.40;99.90;;;;;;5003656;28;20140;-79
2024/02/07 09:53:36;;;;;;;22.63;3.30;;;6.50;99.90;;;;;;5024685;28;20038;-77
2024/02/07 09:56:02;;;;;;;17.17;2.70;;;6.50;99.90;;;;;;5023709;28;20060;-78
2024/02/07 09:58:29;;;;;;;21.50;3.15;;;6.40;99.90;;;;;;5020299;28;20028;-77
2024/02/07 10:00:58;;;;;;;13.32;2.92;;;6.40;99.90;;;;;;5015442;28;20026;-78
2024/02/07 10:03:24;;;;;;;14.50;2.65;;;6.30;99.90;;;;;;5016246;28;20029;-79
2024/02/07 10:05:52;;;;;;;11.52;2.78;;;6.20;99.90;;;;;;5034412;28;20060;-79
2024/02/07 10:08:18;;;;;;;20.50;2.92;;;6.30;99.90;;;;;;5034077;28;20037;-77
2024/02/07 10:10:47;;;;;;;18.55;3.10;;;6.30;99.90;;;;;;5034013;28;20025;-78
2024/02/07 10:13:15;;;;;;;14.98;2.75;;;6.20;99.90;;;;;;5034219;28;20044;-77
2024/02/07 10:15:44;;;;;;;15.73;3.08;;;6.30;99.90;;;;;;5013930;28;20026;-77
2024/02/07 10:18:16;;;;;;;13.02;2.78;;;6.30;99.90;;;;;;5029561;28;20030;-77
2024/02/07 10:20:54;;;;;;;21.55;3.28;;;6.30;99.90;;;;;;5033888;28;20034;-77
2024/02/07 10:23:20;;;;;;;17.50;3.17;;;6.30;99.90;;;;;;5033255;28;20044;-77
2024/02/07 10:25:54;;;;;;;22.40;3.20;;;6.40;99.90;;;;;;5036195;28;20025;-77
2024/02/07 10:28:26;;;;;;;13.95;2.60;;;6.40;99.90;;;;;;5033876;28;20499;-78
2024/02/07 10:31:03;;;;;;;30.55;3.10;;;6.40;99.90;;;;;;5033404;28;20537;-76
2024/02/07 10:33:36;;;;;;;22.30;3.05;;;6.50;99.90;;;;;;5030735;28;20036;-77
2024/02/07 10:36:03;;;;;;;26.52;2.80;;;6.60;99.90;;;;;;5012191;28;20044;-77
2024/02/07 10:38:32;;;;;;;18.35;2.67;;;6.60;99.90;;;;;;5030594;28;20099;-77
2024/02/07 10:41:00;;;;;;;15.85;2.58;;;6.60;99.90;;;;;;5025342;28;20026;-76
2024/02/07 10:43:36;;;;;;;17.85;2.80;;;6.60;99.90;;;;;;4999667;28;20021;-79
2024/02/07 10:46:18;;;;;;;25.15;3.42;;;6.70;99.90;;;;;;5021908;28;20058;-78
2024/02/07 10:48:44;;;;;;;17.33;2.75;;;6.70;99.90;;;;;;5027169;28;20545;-79
2024/02/07 10:51:10;;;;;;;22.02;3.45;;;6.80;99.90;;;;;;5007417;28;20443;-79
2024/02/07 10:53:36;;;;;;;28.33;3.20;;;6.80;99.90;;;;;;5033387;28;20494;-78
2024/02/07 10:56:06;;;;;;;22.25;3.58;;;6.90;99.90;;;;;;5025948;28;20038;-78
2024/02/07 10:58:35;;;;;;;21.40;2.75;;;6.90;99.90;;;;;;5027056;28;20021;-81
2024/02/07 11:01:02;;;;;;;24.60;2.97;;;6.90;99.90;;;;;;5023024;28;20025;-82
2024/02/07 11:03:30;;;;;;;26.90;2.88;;;7.00;99.90;;;;;;5029459;28;20022;-79
2024/02/07 11:05:57;;;;;;;31.83;3.28;;;7.00;99.90;;;;;;5015085;28;20024;-78
2024/02/07 11:08:26;;;;;;;15.20;3.35;;;7.00;99.90;;;;;;5031457;28;20017;-79
2024/02/07 11:10:59;;;;;;;18.75;3.00;;;7.10;99.90;;;;;;5030031;28;20038;-78
2024/02/07 11:13:28;;;;;;;15.35;3.22;;;7.10;99.90;;;;;;5028563;28;20498;-78
2024/02/07 11:15:55;;;;;;;21.98;3.55;;;7.20;99.90;;;;;;5031531;28;20029;-78
2024/02/07 11:18:20;;;;;;;29.20;3.67;;;7.20;99.90;;;;;;5014236;28;20398;-78
2024/02/07 11:20:47;;;;;;;27.40;3.88;;;7.20;99.90;;;;;;5033126;28;20096;-79
2024/02/07 11:23:35;;;;;;;23.83;3.55;;;7.30;99.90;;;;;;5017874;28;20084;-80
2024/02/07 11:26:02;;;;;;;22.27;3.13;;;7.30;99.90;;;;;;5012483;28;20022;-79
2024/02/07 11:28:28;;;;;;;16.75;3.30;;;7.40;99.90;;;;;;5022113;28;20076;-79
2024/02/07 11:30:55;;;;;;;28.52;3.53;;;7.40;99.90;;;;;;5027199;28;20025;-79
2024/02/07 11:33:21;;;;;;;21.75;3.30;;;7.50;99.90;;;;;;5022947;28;20191;-78
2024/02/07 11:35:51;;;;;;;30.13;4.18;;;7.50;99.90;;;;;;5030986;28;20499;-78
2024/02/07 11:38:19;;;;;;;20.98;3.05;;;7.60;99.90;;;;;;5030812;28;20083;-78
2024/02/07 11:40:45;;;;;;;23.50;3.13;;;7.60;99.90;;;;;;5028166;28;20112;-78
2024/02/07 11:43:23;;;;;;;19.55;3.15;;;7.70;99.90;;;;;;5031047;28;20108;-78
2024/02/07 11:45:51;;;;;;;19.30;2.85;;;7.70;99.90;;;;;;5030585;28;20077;-77
2024/02/07 11:48:25;;;;;;;24.20;2.58;;;7.80;99.90;;;;;;5030626;28;20049;-78
2024/02/07 11:50:52;;;;;;;21.10;2.70;;;7.90;99.90;;;;;;5030760;28;20025;-79
2024/02/07 11:53:25;;;;;;;19.58;2.65;;;8.00;99.90;;;;;;5029302;28;20045;-78
2024/02/07 11:55:51;;;;;;;24.77;3.50;;;8.00;99.90;;;;;;5012215;28;20088;-77
2024/02/07 11:58:17;;;;;;;25.98;3.58;;;8.10;99.90;;;;;;5030457;28;20053;-79
2024/02/07 12:00:44;;;;;;;25.77;2.83;;;8.20;99.90;;;;;;5002936;28;20518;-78
2024/02/07 12:03:14;;;;;;;22.80;2.65;;;8.20;99.90;;;;;;5013612;28;20111;-77
2024/02/07 12:05:41;;;;;;;21.23;2.50;;;8.30;99.90;;;;;;5031800;28;20018;-78
2024/02/07 12:08:10;;;;;;;18.38;2.03;;;8.40;99.90;;;;;;5010580;28;20036;-78
2024/02/07 12:10:36;;;;;;;16.63;2.25;;;8.40;99.90;;;;;;5031769;28;20033;-79
2024/02/07 12:13:04;;;;;;;21.67;2.88;;;8.50;99.90;;;;;;5032082;28;20325;-79
2024/02/07 12:15:31;;;;;;;18.02;2.70;;;8.60;99.90;;;;;;5031003;28;20041;-78
2024/02/07 12:17:57;;;;;;;18.70;3.10;;;8.60;99.90;;;;;;5014280;28;20479;-79
2024/02/07 12:20:29;;;;;;;30.10;2.80;;;8.60;99.90;;;;;;5033603;28;20025;-78
2024/02/07 12:23:01;;;;;;;21.58;2.42;;;8.60;99.90;;;;;;5035828;28;20099;-78
2024/02/07 12:25:31;;;;;;;17.05;2.03;;;8.60;99.90;;;;;;5025666;28;20025;-78
2024/02/07 12:28:08;;;;;;;22.08;2.90;;;8.60;99.90;;;;;;5031383;28;20029;-78
2024/02/07 12:30:34;;;;;;;19.63;2.38;;;8.50;99.90;;;;;;5016160;28;20030;-77
2024/02/07 12:33:00;;;;;;;17.98;2.30;;;8.50;99.90;;;;;;5010565;28;20036;-78
2024/02/07 12:35:25;;;;;;;16.45;2.28;;;8.60;99.90;;;;;;5026906;28;20032;-78
2024/02/07 12:37:52;;;;;;;17.75;2.72;;;8.60;99.90;;;;;;5013313;28;20025;-78
2024/02/07 12:40:18;;;;;;;19.98;2.67;;;8.70;99.90;;;;;;5014090;28;20028;-78
2024/02/07 12:42:45;;;;;;;16.05;2.42;;;8.70;99.90;;;;;;5032576;28;20267;-78
2024/02/07 12:45:12;;;;;;;22.90;2.55;;;8.80;99.90;;;;;;5031677;28;20100;-79
2024/02/07 12:47:38;;;;;;;15.35;2.55;;;8.90;99.90;;;;;;5028455;28;20033;-78
2024/02/07 12:50:04;;;;;;;18.33;2.45;;;8.90;99.90;;;;;;5015185;28;20025;-78
2024/02/07 12:52:29;;;;;;;21.13;2.53;;;8.90;99.90;;;;;;5031988;28;20026;-78
2024/02/07 12:54:55;;;;;;;25.10;3.00;;;8.90;99.90;;;;;;5031106;28;20117;-78
2024/02/07 12:57:25;;;;;;;28.88;3.40;;;9.00;99.90;;;;;;5030446;28;20024;-78
2024/02/07 12:59:56;;;;;;;19.67;2.63;;;8.90;99.90;;;;;;5029642;28;20025;-78
2024/02/07 13:02:21;;;;;;;16.60;2.45;;;8.90;99.90;;;;;;5012528;28;20053;-78
2024/02/07 13:04:47;;;;;;;23.65;2.90;;;8.90;99.90;;;;;;5009382;28;20321;-78
2024/02/07 13:07:15;;;;;;;14.43;2.35;;;8.90;99.90;;;;;;5029761;28;20455;-77
2024/02/07 13:09:41;;;;;;;26.33;3.30;;;8.80;99.90;;;;;;5029611;28;20550;-78
2024/02/07 13:12:10;;;;;;;21.45;2.75;;;8.90;99.90;;;;;;5013860;28;20052;-78
2024/02/07 13:14:38;;;;;;;16.50;2.65;;;8.80;99.90;;;;;;5032346;28;20037;-79
2024/02/07 13:17:04;;;;;;;17.13;2.50;;;8.80;99.90;;;;;;5031140;28;20028;-78
2024/02/07 13:19:30;;;;;;;12.52;2.72;;;8.60;99.90;;;;;;5030124;28;20017;-76
2024/02/07 13:21:56;;;;;;;22.63;2.63;;;8.50;99.90;;;;;;5030735;28;20022;-79
2024/02/07 13:24:22;;;;;;;17.25;2.50;;;8.60;99.90;;;;;;5010031;28;20017;-79
2024/02/07 13:26:49;;;;;;;19.65;2.38;;;8.60;99.90;;;;;;5013604;28;20032;-78
2024/02/07 13:29:15;;;;;;;19.70;2.67;;;8.70;99.90;;;;;;5013152;28;20031;-79
2024/02/07 13:31:41;;;;;;;23.60;2.85;;;8.70;99.90;;;;;;5031619;28;20091;-76
2024/02/07 13:34:10;;;;;;;14.27;2.17;;;8.80;99.90;;;;;;5030865;28;20037;-78
2024/02/07 13:36:38;;;;;;;14.30;2.17;;;8.80;99.90;;;;;;5030725;28;20418;-79
2024/02/07 13:39:05;;;;;;;14.57;2.45;;;8.80;99.90;;;;;;5030869;28;20124;-79
2024/02/07 13:41:35;;;;;;;14.98;2.03;;;8.80;99.90;;;;;;5032512;28;20044;-79
2024/02/07 13:44:01;;;;;;;19.73;2.60;;;8.70;99.90;;;;;;5034722;28;20029;-79
2024/02/07 13:46:28;;;;;;;21.27;2.60;;;8.60;99.90;;;;;;5032470;28;20386;-78
2024/02/07 13:48:56;;;;;;;18.73;2.08;;;8.50;99.90;;;;;;5029492;28;20050;-79
2024/02/07 13:51:22;;;;;;;17.25;2.20;;;8.60;99.90;;;;;;5010926;28;20626;-80
2024/02/07 13:53:51;;;;;;;15.80;2.38;;;8.60;99.90;;;;;;5028671;28;20439;-79